createdAt,value
2022-09-26T00:01:34.587Z,27.75
2022-09-26T00:04:07.970Z,27.93
2022-09-26T00:06:35.557Z,25.45
2022-09-26T00:09:03.141Z,22.88
2022-09-26T00:11:33.052Z,20.55
2022-09-26T00:14:04.714Z,23.35
2022-09-26T00:16:33.040Z,23.47
2022-09-26T00:19:04.203Z,30.30
2022-09-26T00:21:32.316Z,25.75
2022-09-26T00:24:01.644Z,19.35
2022-09-26T00:26:31.128Z,25.55
2022-09-26T00:29:01.164Z,29.30
2022-09-26T00:31:32.061Z,27.08
2022-09-26T00:34:00.625Z,23.65
2022-09-26T00:36:37.369Z,25.85
2022-09-26T00:39:08.484Z,29.55
2022-09-26T00:41:36.833Z,25.00
2022-09-26T00:44:24.375Z,25.77
2022-09-26T00:46:52.523Z,22.80
2022-09-26T00:49:34.652Z,25.80
2022-09-26T00:52:26.449Z,25.73
2022-09-26T00:54:56.983Z,28.33
2022-09-26T00:57:37.873Z,25.55
2022-09-26T01:00:09.422Z,21.17
2022-09-26T01:02:37.713Z,20.88
2022-09-26T01:05:06.916Z,21.90
2022-09-26T01:07:35.425Z,28.73
2022-09-26T01:10:05.127Z,29.15
2022-09-26T01:12:33.199Z,24.70
2022-09-26T01:15:01.503Z,24.48
2022-09-26T01:17:29.077Z,23.20
2022-09-26T01:20:18.074Z,33.03
2022-09-26T01:23:19.420Z,29.52
2022-09-26T01:25:59.249Z,23.35
2022-09-26T01:28:49.015Z,20.05
2022-09-26T01:31:32.510Z,20.13
2022-09-26T01:34:24.249Z,26.43
2022-09-26T01:37:23.994Z,22.02
2022-09-26T01:40:22.240Z,21.65
2022-09-26T01:42:54.993Z,30.02
2022-09-26T01:45:29.096Z,21.92
2022-09-26T01:48:31.005Z,20.40
2022-09-26T01:51:33.299Z,22.67
2022-09-26T01:54:12.746Z,27.52
2022-09-26T01:56:42.048Z,18.50
2022-09-26T01:59:32.064Z,24.95
2022-09-26T02:02:10.946Z,18.93
2022-09-26T02:04:44.646Z,21.45
2022-09-26T02:07:16.936Z,24.10
2022-09-26T02:09:56.932Z,18.98
2022-09-26T02:12:32.922Z,22.17
2022-09-26T02:15:06.495Z,26.10
2022-09-26T02:17:40.245Z,19.25
2022-09-26T02:20:35.172Z,23.38
2022-09-26T02:23:04.363Z,22.40
2022-09-26T02:25:33.165Z,14.38
2022-09-26T02:28:01.202Z,22.27
2022-09-26T02:30:29.398Z,16.63
2022-09-26T02:32:57.096Z,16.55
2022-09-26T02:35:44.484Z,16.75
2022-09-26T02:38:13.532Z,15.88
2022-09-26T02:41:00.354Z,15.77
2022-09-26T02:44:06.263Z,13.65
2022-09-26T02:47:02.541Z,15.05
2022-09-26T02:49:49.873Z,14.85
2022-09-26T02:52:55.875Z,13.00
2022-09-26T02:56:03.491Z,10.00
2022-09-26T02:58:39.159Z,10.57
2022-09-26T03:01:19.778Z,12.45
2022-09-26T03:04:18.691Z,10.02
2022-09-26T03:06:51.492Z,10.93
2022-09-26T03:09:23.072Z,8.97
2022-09-26T03:11:54.266Z,12.55
2022-09-26T03:14:21.927Z,8.68
2022-09-26T03:16:52.224Z,10.00
2022-09-26T03:19:30.277Z,8.52
2022-09-26T03:22:00.080Z,7.63
2022-09-26T03:24:28.412Z,6.97
2022-09-26T03:27:00.683Z,7.65
2022-09-26T03:29:28.430Z,13.93
2022-09-26T03:31:56.320Z,13.57
2022-09-26T03:34:23.983Z,8.50
2022-09-26T03:36:54.402Z,11.23
2022-09-26T03:39:23.128Z,9.43
2022-09-26T03:41:59.326Z,11.95
2022-09-26T03:44:29.032Z,8.80
2022-09-26T03:47:18.217Z,10.10
2022-09-26T03:49:49.779Z,8.25
2022-09-26T03:52:17.242Z,9.20
2022-09-26T03:54:45.759Z,10.98
2022-09-26T03:57:17.087Z,7.47
2022-09-26T03:59:52.353Z,12.53
2022-09-26T04:02:21.114Z,12.93
2022-09-26T04:04:55.774Z,10.15
2022-09-26T04:07:23.316Z,7.53
2022-09-26T04:09:50.900Z,7.78
2022-09-26T04:12:20.290Z,7.23
2022-09-26T04:14:47.873Z,10.23
2022-09-26T04:17:15.381Z,10.27
2022-09-26T04:19:44.918Z,11.52
2022-09-26T04:22:12.769Z,7.38
2022-09-26T04:24:41.736Z,9.10
2022-09-26T04:27:09.361Z,14.43
2022-09-26T04:29:38.130Z,10.63
2022-09-26T04:32:12.526Z,7.10
2022-09-26T04:34:52.630Z,12.00
2022-09-26T04:37:21.126Z,9.13
2022-09-26T04:39:48.725Z,14.50
2022-09-26T04:42:16.864Z,12.95
2022-09-26T04:44:44.489Z,12.70
2022-09-26T04:47:12.044Z,11.20
2022-09-26T04:49:58.094Z,16.47
2022-09-26T04:52:26.661Z,10.38
2022-09-26T04:54:54.426Z,11.60
2022-09-26T04:57:22.020Z,8.23
2022-09-26T04:59:49.517Z,10.13
2022-09-26T05:02:18.127Z,13.57
2022-09-26T05:04:48.241Z,15.43
2022-09-26T05:07:16.407Z,17.70
2022-09-26T05:09:44.877Z,13.32
2022-09-26T05:12:15.512Z,11.93
2022-09-26T05:14:46.127Z,12.50
2022-09-26T05:17:15.549Z,12.85
2022-09-26T05:19:45.908Z,15.57
2022-09-26T05:22:29.893Z,7.50
2022-09-26T05:25:15.989Z,11.43
2022-09-26T05:27:43.871Z,11.30
2022-09-26T05:30:14.659Z,9.32
2022-09-26T05:32:46.130Z,9.93
2022-09-26T05:35:14.174Z,16.25
2022-09-26T05:37:42.816Z,11.27
2022-09-26T05:40:30.329Z,10.20
2022-09-26T05:43:02.656Z,17.75
2022-09-26T05:45:31.615Z,9.82
2022-09-26T05:48:01.997Z,9.05
2022-09-26T05:50:29.785Z,11.80
2022-09-26T05:52:58.789Z,15.73
2022-09-26T05:55:27.584Z,9.07
2022-09-26T05:57:58.730Z,10.70
2022-09-26T06:00:35.774Z,14.98
2022-09-26T06:03:03.834Z,14.20
2022-09-26T06:05:52.053Z,12.00
2022-09-26T06:08:25.605Z,9.73
2022-09-26T06:11:16.405Z,14.65
2022-09-26T06:13:48.437Z,12.35
2022-09-26T06:16:19.165Z,13.75
2022-09-26T06:18:50.684Z,13.63
2022-09-26T06:21:20.789Z,11.65
2022-09-26T06:23:52.488Z,14.25
2022-09-26T06:26:23.694Z,11.80
2022-09-26T06:29:00.407Z,11.90
2022-09-26T06:31:30.347Z,12.33
2022-09-26T06:34:09.940Z,11.60
2022-09-26T06:36:49.695Z,9.02
2022-09-26T06:39:17.944Z,8.38
2022-09-26T06:41:47.727Z,8.88
2022-09-26T06:44:35.589Z,7.63
2022-09-26T06:47:15.869Z,14.68
2022-09-26T06:49:46.970Z,12.20
2022-09-26T06:52:26.668Z,11.45
2022-09-26T06:54:57.215Z,12.10
2022-09-26T06:57:24.795Z,11.77
2022-09-26T06:59:52.506Z,8.50
2022-09-26T07:02:51.562Z,10.27
2022-09-26T07:05:37.882Z,8.25
2022-09-26T07:08:05.577Z,8.23
2022-09-26T07:10:35.270Z,5.03
2022-09-26T07:13:09.524Z,6.97
2022-09-26T07:15:37.595Z,11.68
2022-09-26T07:18:20.519Z,7.03
2022-09-26T07:21:23.479Z,8.43
2022-09-26T07:24:06.185Z,8.60
2022-09-26T07:26:33.877Z,11.43
2022-09-26T07:29:01.880Z,12.80
2022-09-26T07:31:31.149Z,14.63
2022-09-26T07:34:08.826Z,6.18
2022-09-26T07:36:40.863Z,9.93
2022-09-26T07:39:09.795Z,10.05
2022-09-26T07:41:37.371Z,9.48
2022-09-26T07:44:53.297Z,10.98
2022-09-26T07:47:10.790Z,9.00
2022-09-26T07:49:57.503Z,6.37
2022-09-26T07:52:58.326Z,10.00
2022-09-26T07:55:27.952Z,10.25
2022-09-26T07:58:01.086Z,9.45
2022-09-26T08:00:48.565Z,10.30
2022-09-26T08:03:44.543Z,10.47
2022-09-26T08:06:35.186Z,7.65
2022-09-26T08:09:03.175Z,9.35
2022-09-26T08:11:49.065Z,14.68
2022-09-26T08:14:55.046Z,5.68
2022-09-26T08:17:33.631Z,7.33
2022-09-26T08:20:02.059Z,11.10
2022-09-26T08:22:30.017Z,8.20
2022-09-26T08:25:00.257Z,7.57
2022-09-26T08:27:46.659Z,8.18
2022-09-26T08:30:15.246Z,11.23
2022-09-26T08:32:42.957Z,8.80
2022-09-26T08:35:14.559Z,8.57
2022-09-26T08:37:44.991Z,8.80
2022-09-26T08:40:54.988Z,8.90
2022-09-26T08:43:57.837Z,9.57
2022-09-26T08:47:11.682Z,14.45
2022-09-26T08:50:12.196Z,9.80
2022-09-26T08:53:00.854Z,6.55
2022-09-26T08:55:35.181Z,7.03
2022-09-26T08:58:08.961Z,8.47
2022-09-26T09:00:40.433Z,4.68
2022-09-26T09:03:31.767Z,8.38
2022-09-26T09:06:11.613Z,7.72
2022-09-26T09:08:50.136Z,11.25
2022-09-26T09:11:54.435Z,7.53
2022-09-26T09:14:24.867Z,7.97
2022-09-26T09:17:23.099Z,6.32
2022-09-26T09:20:27.901Z,7.75
2022-09-26T09:23:47.548Z,7.97
2022-09-26T09:29:32.364Z,5.57
2022-09-26T09:32:25.833Z,8.02
2022-09-26T09:35:16.611Z,9.80
2022-09-26T09:38:21.549Z,6.50
2022-09-26T09:41:14.314Z,7.33
2022-09-26T09:43:51.997Z,7.45
2022-09-26T09:46:29.539Z,8.75
2022-09-26T09:49:09.441Z,7.18
2022-09-26T09:52:26.506Z,7.05
2022-09-26T09:55:30.030Z,9.07
2022-09-26T09:58:51.938Z,6.90
2022-09-26T10:01:39.245Z,4.80
2022-09-26T10:04:44.585Z,5.32
2022-09-26T10:07:13.493Z,5.47
2022-09-26T10:09:55.909Z,5.10
2022-09-26T10:12:55.103Z,6.90
2022-09-26T10:16:32.269Z,5.13
2022-09-26T10:19:18.446Z,6.63
2022-09-26T10:21:57.157Z,4.35
2022-09-26T10:24:38.905Z,5.43
2022-09-26T10:27:41.216Z,5.97
2022-09-26T10:30:26.210Z,4.97
2022-09-26T10:33:03.584Z,5.63
2022-09-26T10:36:13.087Z,6.25
2022-09-26T10:39:22.725Z,6.67
2022-09-26T10:42:04.057Z,6.00
2022-09-26T10:44:36.675Z,5.47
2022-09-26T10:47:15.688Z,7.68
2022-09-26T10:50:18.506Z,6.50
2022-09-26T10:53:17.576Z,5.97
2022-09-26T10:55:58.814Z,7.18
2022-09-26T10:58:31.027Z,8.30
2022-09-26T11:01:07.417Z,5.70
2022-09-26T11:03:54.656Z,5.75
2022-09-26T11:06:35.513Z,6.17
2022-09-26T11:09:28.942Z,5.65
2022-09-26T11:12:36.522Z,5.85
2022-09-26T11:15:14.976Z,5.43
2022-09-26T11:17:51.013Z,7.57
2022-09-26T11:20:43.208Z,8.03
2022-09-26T11:23:34.959Z,6.38
2022-09-26T11:26:42.575Z,5.07
2022-09-26T11:29:39.141Z,5.20
2022-09-26T11:32:18.549Z,5.05
2022-09-26T11:35:32.432Z,5.50
2022-09-26T11:38:39.067Z,6.85
2022-09-26T11:41:18.690Z,7.20
2022-09-26T11:43:51.069Z,6.20
2022-09-26T11:47:13.179Z,5.80
2022-09-26T11:50:08.205Z,6.57
2022-09-26T11:53:17.847Z,5.55
2022-09-26T11:56:36.095Z,6.15
2022-09-26T12:00:06.860Z,7.60
2022-09-26T12:03:05.491Z,5.32
2022-09-26T12:06:04.572Z,5.63
2022-09-26T12:08:58.751Z,15.73
2022-09-26T12:11:57.538Z,4.40
2022-09-26T12:14:29.412Z,6.28
2022-09-26T12:17:20.518Z,8.25
2022-09-26T12:20:33.708Z,4.90
2022-09-26T12:23:10.110Z,5.47
2022-09-26T12:26:15.192Z,6.15
2022-09-26T12:29:24.422Z,6.20
2022-09-26T12:32:06.779Z,4.82
2022-09-26T12:35:16.563Z,5.33
2022-09-26T12:38:08.915Z,4.50
2022-09-26T12:40:58.073Z,4.80
2022-09-26T12:43:51.158Z,7.07
2022-09-26T12:46:54.150Z,5.18
2022-09-26T12:49:44.062Z,5.47
2022-09-26T12:52:26.583Z,4.10
2022-09-26T12:55:17.722Z,8.07
2022-09-26T12:58:22.061Z,6.57
2022-09-26T13:01:06.528Z,6.22
2022-09-26T13:03:43.426Z,5.47
2022-09-26T13:06:22.068Z,4.32
2022-09-26T13:09:05.966Z,4.72
2022-09-26T13:11:58.365Z,8.32
2022-09-26T13:14:36.793Z,5.65
2022-09-26T13:17:28.539Z,6.93
2022-09-26T13:20:22.489Z,6.25
2022-09-26T13:23:03.340Z,6.30
2022-09-26T13:25:52.625Z,6.07
2022-09-26T13:28:44.574Z,6.15
2022-09-26T13:31:41.557Z,6.63
2022-09-26T13:34:26.786Z,4.32
2022-09-26T13:36:59.331Z,6.95
2022-09-26T13:39:29.999Z,5.53
2022-09-26T13:42:19.235Z,5.43
2022-09-26T13:45:21.700Z,6.57
2022-09-26T13:48:08.703Z,5.00
2022-09-26T13:50:49.422Z,5.53
2022-09-26T13:53:30.518Z,4.30
2022-09-26T13:56:31.309Z,6.78
2022-09-26T13:59:29.492Z,6.87
2022-09-26T14:02:18.545Z,2.88
2022-09-26T14:04:48.296Z,5.72
2022-09-26T14:07:36.008Z,3.85
2022-09-26T14:10:08.907Z,4.25
2022-09-26T14:13:06.824Z,4.57
2022-09-26T14:15:50.108Z,4.53
2022-09-26T14:19:04.446Z,3.22
2022-09-26T14:21:47.473Z,3.25
2022-09-26T14:24:21.032Z,4.65
2022-09-26T14:27:09.851Z,4.37
2022-09-26T14:29:47.865Z,3.60
2022-09-26T14:32:23.381Z,4.05
2022-09-26T14:34:55.507Z,9.98
2022-09-26T14:37:26.694Z,4.40
2022-09-26T14:40:16.964Z,4.00
2022-09-26T14:42:44.836Z,4.80
2022-09-26T14:45:28.485Z,4.10
2022-09-26T14:48:09.616Z,2.63
2022-09-26T14:50:50.627Z,2.25
2022-09-26T14:54:03.754Z,2.50
2022-09-26T14:56:42.064Z,4.53
2022-09-26T14:59:16.393Z,5.97
2022-09-26T15:01:45.510Z,4.93
2022-09-26T15:04:25.619Z,3.80
2022-09-26T15:07:16.495Z,5.13
2022-09-26T15:10:19.145Z,5.97
2022-09-26T15:13:30.188Z,3.60
2022-09-26T15:16:26.340Z,3.28
2022-09-26T15:19:11.701Z,2.22
2022-09-26T15:21:42.504Z,4.87
2022-09-26T15:24:35.862Z,4.70
2022-09-26T15:27:19.953Z,3.42
2022-09-26T15:29:58.716Z,6.22
2022-09-26T15:32:29.853Z,2.60
2022-09-26T15:35:01.581Z,3.93
2022-09-26T15:40:33.634Z,2.10
2022-09-26T15:43:21.001Z,4.78
2022-09-26T15:45:58.681Z,2.28
2022-09-26T15:48:32.759Z,3.83
2022-09-26T15:51:29.745Z,2.17
2022-09-26T15:54:22.935Z,1.55
2022-09-26T15:57:01.129Z,4.25
2022-09-26T15:59:41.492Z,2.42
2022-09-26T16:02:39.316Z,3.80
2022-09-26T16:05:18.046Z,2.80
2022-09-26T16:07:53.597Z,8.68
2022-09-26T16:10:40.326Z,2.83
2022-09-26T16:13:30.126Z,5.32
2022-09-26T16:16:17.474Z,4.33
2022-09-26T16:18:58.323Z,3.08
2022-09-26T16:21:40.424Z,4.82
2022-09-26T16:24:37.176Z,4.75
2022-09-26T16:27:29.331Z,5.80
2022-09-26T16:30:06.417Z,8.17
2022-09-26T16:32:42.523Z,6.05
2022-09-26T16:35:34.537Z,5.15
2022-09-26T16:38:25.977Z,4.72
2022-09-26T16:40:56.672Z,7.95
2022-09-26T16:43:31.664Z,5.90
2022-09-26T16:46:13.603Z,6.22
2022-09-26T16:48:42.490Z,7.65
2022-09-26T16:51:25.351Z,6.40
2022-09-26T16:54:22.414Z,7.53
2022-09-26T16:56:51.691Z,4.67
2022-09-26T16:59:24.040Z,7.32
2022-09-26T17:01:54.648Z,6.15
2022-09-26T17:04:31.724Z,6.82
2022-09-26T17:07:00.872Z,8.05
2022-09-26T17:09:30.719Z,7.67
2022-09-26T17:12:08.478Z,8.50
2022-09-26T17:14:40.637Z,6.75
2022-09-26T17:17:16.285Z,7.82
2022-09-26T17:19:47.595Z,9.13
2022-09-26T17:22:17.673Z,8.63
2022-09-26T17:24:45.673Z,10.15
2022-09-26T17:27:16.600Z,9.00
2022-09-26T17:29:48.601Z,8.20
2022-09-26T17:32:31.159Z,6.30
2022-09-26T17:35:02.208Z,12.07
2022-09-26T17:37:29.759Z,10.25
2022-09-26T17:39:57.785Z,9.07
2022-09-26T17:42:25.950Z,8.68
2022-09-26T17:44:54.047Z,10.32
2022-09-26T17:47:23.532Z,5.93
2022-09-26T17:49:54.818Z,7.50
2022-09-26T17:52:29.309Z,8.27
2022-09-26T17:55:05.970Z,6.43
2022-09-26T17:57:38.305Z,11.63
2022-09-26T18:00:11.323Z,12.30
2022-09-26T18:02:49.251Z,8.10
2022-09-26T18:05:30.009Z,8.13
2022-09-26T18:08:04.401Z,14.15
2022-09-26T18:10:34.804Z,9.77
2022-09-26T18:13:12.946Z,10.23
2022-09-26T18:15:41.656Z,14.27
2022-09-26T18:18:14.585Z,11.93
2022-09-26T18:20:43.095Z,12.82
2022-09-26T18:23:16.434Z,9.45
2022-09-26T18:25:47.565Z,9.23
2022-09-26T18:28:20.538Z,11.48
2022-09-26T18:30:56.850Z,11.90
2022-09-26T18:33:27.942Z,9.70
2022-09-26T18:35:55.627Z,9.63
2022-09-26T18:38:23.114Z,12.67
2022-09-26T18:40:55.922Z,9.75
2022-09-26T18:43:28.079Z,10.25
2022-09-26T18:45:57.637Z,11.10
2022-09-26T18:48:30.022Z,7.80
2022-09-26T18:50:57.775Z,13.87
2022-09-26T18:53:29.523Z,14.10
2022-09-26T18:56:15.847Z,11.70
2022-09-26T18:58:44.061Z,9.98
2022-09-26T19:01:16.871Z,6.68
2022-09-26T19:03:51.074Z,12.07
2022-09-26T19:06:23.285Z,7.18
2022-09-26T19:08:57.565Z,10.85
2022-09-26T19:11:29.302Z,8.77
2022-09-26T19:13:58.656Z,12.57
2022-09-26T19:16:26.477Z,11.10
2022-09-26T19:18:54.059Z,10.00
2022-09-26T19:21:36.429Z,8.98
2022-09-26T19:24:20.339Z,8.82
2022-09-26T19:26:57.527Z,9.43
2022-09-26T19:29:37.318Z,10.30
2022-09-26T19:32:06.364Z,11.13
2022-09-26T19:34:34.089Z,11.55
2022-09-26T19:37:03.223Z,10.98
2022-09-26T19:39:31.850Z,9.85
2022-09-26T19:41:59.375Z,7.30
2022-09-26T19:44:26.930Z,9.35
2022-09-26T19:46:54.723Z,7.85
2022-09-26T19:49:23.715Z,9.85
2022-09-26T19:51:51.289Z,9.07
2022-09-26T19:54:19.652Z,9.53
2022-09-26T19:56:47.854Z,9.80
2022-09-26T19:59:17.298Z,10.77
2022-09-26T20:01:48.337Z,6.57
2022-09-26T20:04:19.244Z,14.27
2022-09-26T20:06:47.434Z,10.50
2022-09-26T20:09:19.810Z,12.07
2022-09-26T20:11:47.360Z,9.65
2022-09-26T20:14:23.948Z,12.48
2022-09-26T20:16:56.215Z,9.73
2022-09-26T20:19:34.498Z,12.37
2022-09-26T20:22:04.860Z,8.40
2022-09-26T20:24:33.650Z,9.00
2022-09-26T20:27:03.488Z,10.30
2022-09-26T20:29:51.454Z,8.25
2022-09-26T20:32:19.356Z,12.07
2022-09-26T20:34:47.008Z,8.68
2022-09-26T20:37:14.862Z,12.07
2022-09-26T20:39:42.814Z,6.63
2022-09-26T20:42:17.608Z,10.23
2022-09-26T20:44:48.670Z,13.90
2022-09-26T20:47:19.839Z,9.40
2022-09-26T20:49:55.244Z,11.88
2022-09-26T20:52:26.099Z,10.52
2022-09-26T20:54:55.339Z,8.52
2022-09-26T20:57:24.332Z,8.83
2022-09-26T20:59:52.226Z,8.50
2022-09-26T21:02:35.913Z,7.28
2022-09-26T21:05:10.924Z,5.18
2022-09-26T21:07:38.536Z,15.20
2022-09-26T21:10:21.865Z,9.27
2022-09-26T21:12:50.159Z,10.75
2022-09-26T21:15:18.411Z,8.10
2022-09-26T21:17:47.887Z,11.27
2022-09-26T21:20:20.764Z,6.03
2022-09-26T21:22:58.208Z,8.43
2022-09-26T21:25:30.140Z,10.00
2022-09-26T21:28:01.690Z,7.57
2022-09-26T21:30:30.754Z,9.60
2022-09-26T21:32:59.920Z,7.88
2022-09-26T21:35:31.486Z,7.67
2022-09-26T21:38:01.152Z,10.10
2022-09-26T21:40:32.496Z,8.13
2022-09-26T21:43:07.785Z,9.68
2022-09-26T21:45:35.593Z,9.63
2022-09-26T21:48:03.280Z,9.27
2022-09-26T21:50:31.169Z,11.20
2022-09-26T21:53:11.297Z,6.50
2022-09-26T21:55:43.226Z,16.35
2022-09-26T21:58:18.855Z,7.40
2022-09-26T22:00:46.471Z,10.37
2022-09-26T22:03:14.263Z,12.85
2022-09-26T22:05:42.574Z,9.15
2022-09-26T22:08:10.181Z,6.43
2022-09-26T22:10:37.724Z,13.40
2022-09-26T22:13:05.573Z,8.90
2022-09-26T22:15:33.102Z,7.22
2022-09-26T22:18:01.122Z,5.10
2022-09-26T22:20:28.658Z,6.80
2022-09-26T22:22:56.212Z,8.75
2022-09-26T22:25:23.718Z,9.47
2022-09-26T22:27:51.243Z,8.75
2022-09-26T22:30:18.787Z,9.77
2022-09-26T22:32:46.332Z,5.03
2022-09-26T22:35:14.385Z,6.10
2022-09-26T22:37:41.828Z,12.90
2022-09-26T22:40:09.528Z,6.30
2022-09-26T22:42:37.217Z,8.75
2022-09-26T22:45:05.109Z,7.32
2022-09-26T22:47:32.596Z,6.70
2022-09-26T22:50:00.313Z,13.03
2022-09-26T22:52:27.795Z,7.28
2022-09-26T22:54:55.377Z,8.00
2022-09-26T22:57:23.317Z,8.70
2022-09-26T22:59:50.846Z,6.88
2022-09-26T23:02:18.377Z,5.33
2022-09-26T23:04:48.799Z,10.52
2022-09-26T23:07:19.880Z,7.60
2022-09-26T23:09:47.448Z,7.55
2022-09-26T23:12:15.256Z,4.93
2022-09-26T23:14:42.925Z,9.03
2022-09-26T23:17:10.855Z,8.05
2022-09-26T23:19:38.498Z,6.07
2022-09-26T23:22:06.079Z,8.68
2022-09-26T23:24:33.627Z,3.38
2022-09-26T23:27:01.188Z,6.47
2022-09-26T23:29:28.825Z,10.60
2022-09-26T23:31:56.409Z,6.03
2022-09-26T23:34:23.967Z,7.25
2022-09-26T23:36:51.472Z,5.50
2022-09-26T23:39:19.111Z,3.37
2022-09-26T23:41:46.618Z,8.02
2022-09-26T23:44:14.305Z,7.10
2022-09-26T23:46:42.087Z,5.45
